sensor_id;sensor_type;location;lat;lon;timestamp;P1;durP1;ratioP1;P2;durP2;ratioP2
69917;SDS011;57203;42.672;23.334;2024-01-06T00:00:38;62.0;;;35.6;;
69917;SDS011;57203;42.672;23.334;2024-01-06T00:01:38;62.0;;;36.5;;
69917;SDS011;57203;42.672;23.334;2024-01-06T00:02:38;60.2;;;36.2;;
69917;SDS011;57203;42.672;23.334;2024-01-06T00:03:38;60.7;;;32.5;;
69917;SDS011;57203;42.672;23.334;2024-01-06T00:04:38;61.6;;;31.6;;
69917;SDS011;57203;42.672;23.334;2024-01-06T00:05:39;70.1;;;36.9;;
69917;SDS011;57203;42.672;23.334;2024-01-06T00:06:39;70.1;;;37.8;;
69917;SDS011;57203;42.672;23.334;2024-01-06T00:07:39;64.7;;;37.5;;
69917;SDS011;57203;42.672;23.334;2024-01-06T00:08:39;61.7;;;37.0;;
69917;SDS011;57203;42.672;23.334;2024-01-06T00:09:39;56.8;;;34.9;;
69917;SDS011;57203;42.672;23.334;2024-01-06T00:10:40;56.8;;;34.6;;
69917;SDS011;57203;42.672;23.334;2024-01-06T00:11:40;60.1;;;32.7;;
69917;SDS011;57203;42.672;23.334;2024-01-06T00:12:40;64.6;;;35.1;;
69917;SDS011;57203;42.672;23.334;2024-01-06T00:13:40;60.8;;;34.4;;
69917;SDS011;57203;42.672;23.334;2024-01-06T00:14:40;59.0;;;34.9;;
69917;SDS011;57203;42.672;23.334;2024-01-06T00:15:41;68.1;;;36.3;;
69917;SDS011;57203;42.672;23.334;2024-01-06T00:17:41;62.4;;;36.1;;
69917;SDS011;57203;42.672;23.334;2024-01-06T00:18:41;59.6;;;35.5;;
69917;SDS011;57203;42.672;23.334;2024-01-06T00:19:41;64.1;;;37.0;;
69917;SDS011;57203;42.672;23.334;2024-01-06T00:20:41;64.1;;;38.0;;
69917;SDS011;57203;42.672;23.334;2024-01-06T00:21:42;66.1;;;36.9;;
69917;SDS011;57203;42.672;23.334;2024-01-06T00:22:42;62.0;;;36.1;;
69917;SDS011;57203;42.672;23.334;2024-01-06T00:23:42;58.2;;;36.5;;
69917;SDS011;57203;42.672;23.334;2024-01-06T00:24:42;60.6;;;36.3;;
69917;SDS011;57203;42.672;23.334;2024-01-06T00:25:42;60.6;;;34.7;;
69917;SDS011;57203;42.672;23.334;2024-01-06T00:26:42;56.7;;;36.7;;
69917;SDS011;57203;42.672;23.334;2024-01-06T00:27:43;63.8;;;36.2;;
69917;SDS011;57203;42.672;23.334;2024-01-06T00:28:43;59.7;;;35.9;;
69917;SDS011;57203;42.672;23.334;2024-01-06T00:29:43;58.2;;;34.2;;
69917;SDS011;57203;42.672;23.334;2024-01-06T00:30:43;57.6;;;35.4;;
69917;SDS011;57203;42.672;23.334;2024-01-06T00:32:44;56.3;;;36.3;;
69917;SDS011;57203;42.672;23.334;2024-01-06T00:33:44;61.4;;;36.6;;
69917;SDS011;57203;42.672;23.334;2024-01-06T00:34:44;60.7;;;32.7;;
69917;SDS011;57203;42.672;23.334;2024-01-06T00:35:44;57.6;;;33.1;;
69917;SDS011;57203;42.672;23.334;2024-01-06T00:36:44;59.5;;;35.8;;
69917;SDS011;57203;42.672;23.334;2024-01-06T00:37:44;65.3;;;36.2;;
69917;SDS011;57203;42.672;23.334;2024-01-06T00:38:45;65.3;;;35.9;;
69917;SDS011;57203;42.672;23.334;2024-01-06T00:39:45;56.7;;;37.0;;
69917;SDS011;57203;42.672;23.334;2024-01-06T00:40:45;60.7;;;36.5;;
69917;SDS011;57203;42.672;23.334;2024-01-06T00:41:45;60.7;;;34.6;;
69917;SDS011;57203;42.672;23.334;2024-01-06T00:42:45;54.8;;;35.4;;
69917;SDS011;57203;42.672;23.334;2024-01-06T00:43:46;59.9;;;36.5;;
69917;SDS011;57203;42.672;23.334;2024-01-06T00:44:46;64.0;;;36.6;;
69917;SDS011;57203;42.672;23.334;2024-01-06T00:45:46;64.0;;;35.2;;
69917;SDS011;57203;42.672;23.334;2024-01-06T00:46:46;58.8;;;35.1;;
69917;SDS011;57203;42.672;23.334;2024-01-06T00:47:46;62.0;;;36.1;;
69917;SDS011;57203;42.672;23.334;2024-01-06T00:48:46;62.0;;;34.6;;
69917;SDS011;57203;42.672;23.334;2024-01-06T00:49:47;54.7;;;37.0;;
69917;SDS011;57203;42.672;23.334;2024-01-06T00:50:47;63.4;;;36.3;;
69917;SDS011;57203;42.672;23.334;2024-01-06T00:51:47;63.4;;;36.1;;
69917;SDS011;57203;42.672;23.334;2024-01-06T00:52:47;61.1;;;34.6;;
69917;SDS011;57203;42.672;23.334;2024-01-06T00:53:47;57.8;;;34.2;;
69917;SDS011;57203;42.672;23.334;2024-01-06T00:54:48;63.8;;;35.8;;
69917;SDS011;57203;42.672;23.334;2024-01-06T00:55:48;57.0;;;35.7;;
69917;SDS011;57203;42.672;23.334;2024-01-06T00:56:48;57.0;;;32.3;;
69917;SDS011;57203;42.672;23.334;2024-01-06T00:57:48;65.9;;;33.6;;
69917;SDS011;57203;42.672;23.334;2024-01-06T00:58:48;62.5;;;37.0;;
69917;SDS011;57203;42.672;23.334;2024-01-06T00:59:48;62.8;;;36.4;;
69917;SDS011;57203;42.672;23.334;2024-01-06T01:00:49;62.8;;;37.2;;
69917;SDS011;57203;42.672;23.334;2024-01-06T01:01:49;63.2;;;36.0;;
69917;SDS011;57203;42.672;23.334;2024-01-06T01:02:49;56.4;;;31.7;;
69917;SDS011;57203;42.672;23.334;2024-01-06T01:03:49;57.3;;;33.1;;
69917;SDS011;57203;42.672;23.334;2024-01-06T01:04:49;62.7;;;36.4;;
69917;SDS011;57203;42.672;23.334;2024-01-06T01:06:50;59.1;;;35.9;;
69917;SDS011;57203;42.672;23.334;2024-01-06T01:07:50;60.2;;;36.9;;
69917;SDS011;57203;42.672;23.334;2024-01-06T01:08:50;63.2;;;36.0;;
69917;SDS011;57203;42.672;23.334;2024-01-06T01:09:50;63.2;;;37.6;;
69917;SDS011;57203;42.672;23.334;2024-01-06T01:10:50;60.7;;;36.8;;
69917;SDS011;57203;42.672;23.334;2024-01-06T01:11:51;64.0;;;38.0;;
69917;SDS011;57203;42.672;23.334;2024-01-06T01:12:51;59.7;;;34.9;;
69917;SDS011;57203;42.672;23.334;2024-01-06T01:13:51;59.7;;;33.3;;
69917;SDS011;57203;42.672;23.334;2024-01-06T01:14:51;63.5;;;32.8;;
69917;SDS011;57203;42.672;23.334;2024-01-06T01:15:51;63.5;;;37.0;;
69917;SDS011;57203;42.672;23.334;2024-01-06T01:16:52;63.1;;;37.5;;
69917;SDS011;57203;42.672;23.334;2024-01-06T01:17:52;55.8;;;34.1;;
69917;SDS011;57203;42.672;23.334;2024-01-06T01:18:52;55.8;;;36.0;;
69917;SDS011;57203;42.672;23.334;2024-01-06T01:19:52;60.4;;;37.3;;
69917;SDS011;57203;42.672;23.334;2024-01-06T01:20:52;63.3;;;36.6;;
69917;SDS011;57203;42.672;23.334;2024-01-06T01:21:52;61.3;;;31.3;;
69917;SDS011;57203;42.672;23.334;2024-01-06T01:22:53;58.0;;;30.9;;
69917;SDS011;57203;42.672;23.334;2024-01-06T01:23:53;59.2;;;31.3;;
69917;SDS011;57203;42.672;23.334;2024-01-06T01:24:53;59.5;;;34.8;;
69917;SDS011;57203;42.672;23.334;2024-01-06T01:25:53;55.1;;;34.7;;
69917;SDS011;57203;42.672;23.334;2024-01-06T01:26:53;55.1;;;35.3;;
69917;SDS011;57203;42.672;23.334;2024-01-06T01:27:53;62.0;;;33.3;;
69917;SDS011;57203;42.672;23.334;2024-01-06T01:28:54;54.9;;;31.8;;
69917;SDS011;57203;42.672;23.334;2024-01-06T01:29:54;56.9;;;32.2;;
69917;SDS011;57203;42.672;23.334;2024-01-06T01:30:54;60.0;;;31.8;;
69917;SDS011;57203;42.672;23.334;2024-01-06T01:31:54;57.8;;;28.7;;
69917;SDS011;57203;42.672;23.334;2024-01-06T01:32:54;60.5;;;30.7;;
69917;SDS011;57203;42.672;23.334;2024-01-06T01:33:54;60.5;;;33.3;;
69917;SDS011;57203;42.672;23.334;2024-01-06T01:34:55;56.3;;;32.2;;
69917;SDS011;57203;42.672;23.334;2024-01-06T01:35:55;51.7;;;32.7;;
69917;SDS011;57203;42.672;23.334;2024-01-06T01:36:55;51.7;;;28.7;;
69917;SDS011;57203;42.672;23.334;2024-01-06T01:37:55;48.5;;;29.9;;
69917;SDS011;57203;42.672;23.334;2024-01-06T01:38:55;45.8;;;28.2;;
69917;SDS011;57203;42.672;23.334;2024-01-06T01:39:56;47.5;;;30.4;;
69917;SDS011;57203;42.672;23.334;2024-01-06T01:40:56;48.5;;;29.3;;
69917;SDS011;57203;42.672;23.334;2024-01-06T01:41:56;47.6;;;31.6;;
69917;SDS011;57203;42.672;23.334;2024-01-06T01:42:56;54.4;;;32.6;;
69917;SDS011;57203;42.672;23.334;2024-01-06T01:44:56;56.1;;;32.1;;
69917;SDS011;57203;42.672;23.334;2024-01-06T01:45:57;52.0;;;31.4;;
69917;SDS011;57203;42.672;23.334;2024-01-06T01:46:57;55.3;;;30.2;;
69917;SDS011;57203;42.672;23.334;2024-01-06T01:47:57;55.3;;;27.8;;
69917;SDS011;57203;42.672;23.334;2024-01-06T01:48:58;46.3;;;25.5;;
69917;SDS011;57203;42.672;23.334;2024-01-06T01:49:57;52.4;;;27.3;;
69917;SDS011;57203;42.672;23.334;2024-01-06T01:50:58;52.4;;;27.7;;
69917;SDS011;57203;42.672;23.334;2024-01-06T01:51:58;54.8;;;25.4;;
69917;SDS011;57203;42.672;23.334;2024-01-06T01:52:58;47.2;;;26.3;;
69917;SDS011;57203;42.672;23.334;2024-01-06T01:53:58;44.2;;;35.4;;
69917;SDS011;57203;42.672;23.334;2024-01-06T01:54:58;58.9;;;34.8;;
69917;SDS011;57203;42.672;23.334;2024-01-06T01:55:58;48.6;;;29.3;;
69917;SDS011;57203;42.672;23.334;2024-01-06T01:56:59;48.6;;;32.5;;
69917;SDS011;57203;42.672;23.334;2024-01-06T01:57:59;56.5;;;30.5;;
69917;SDS011;57203;42.672;23.334;2024-01-06T01:58:59;53.3;;;30.0;;
69917;SDS011;57203;42.672;23.334;2024-01-06T01:59:59;54.1;;;32.7;;
69917;SDS011;57203;42.672;23.334;2024-01-06T02:00:59;56.9;;;32.6;;
69917;SDS011;57203;42.672;23.334;2024-01-06T02:02:00;52.3;;;33.0;;
69917;SDS011;57203;42.672;23.334;2024-01-06T02:03:00;52.3;;;33.4;;
69917;SDS011;57203;42.672;23.334;2024-01-06T02:04:00;54.2;;;31.8;;
69917;SDS011;57203;42.672;23.334;2024-01-06T02:05:00;54.5;;;32.8;;
69917;SDS011;57203;42.672;23.334;2024-01-06T02:06:00;54.5;;;33.6;;
69917;SDS011;57203;42.672;23.334;2024-01-06T02:07:00;49.4;;;31.4;;
69917;SDS011;57203;42.672;23.334;2024-01-06T02:08:01;49.4;;;32.8;;
69917;SDS011;57203;42.672;23.334;2024-01-06T02:09:01;50.7;;;31.5;;
69917;SDS011;57203;42.672;23.334;2024-01-06T02:10:01;53.4;;;33.1;;
69917;SDS011;57203;42.672;23.334;2024-01-06T02:11:01;54.6;;;32.3;;
69917;SDS011;57203;42.672;23.334;2024-01-06T02:12:02;53.6;;;32.7;;
69917;SDS011;57203;42.672;23.334;2024-01-06T02:13:07;53.6;;;32.5;;
69917;SDS011;57203;42.672;23.334;2024-01-06T02:14:02;52.6;;;29.3;;
69917;SDS011;57203;42.672;23.334;2024-01-06T02:15:02;52.6;;;32.4;;
69917;SDS011;57203;42.672;23.334;2024-01-06T02:16:02;51.8;;;32.8;;
69917;SDS011;57203;42.672;23.334;2024-01-06T02:17:02;52.8;;;31.2;;
69917;SDS011;57203;42.672;23.334;2024-01-06T02:18:03;52.6;;;33.4;;
69917;SDS011;57203;42.672;23.334;2024-01-06T02:19:03;54.7;;;34.1;;
69917;SDS011;57203;42.672;23.334;2024-01-06T02:20:03;145.9;;;58.5;;
69917;SDS011;57203;42.672;23.334;2024-01-06T02:21:03;155.1;;;61.1;;
69917;SDS011;57203;42.672;23.334;2024-01-06T02:22:03;155.1;;;55.3;;
69917;SDS011;57203;42.672;23.334;2024-01-06T02:23:03;65.6;;;33.8;;
69917;SDS011;57203;42.672;23.334;2024-01-06T02:24:04;65.6;;;29.5;;
69917;SDS011;57203;42.672;23.334;2024-01-06T02:25:04;48.4;;;26.6;;
69917;SDS011;57203;42.672;23.334;2024-01-06T02:26:04;48.4;;;25.0;;
69917;SDS011;57203;42.672;23.334;2024-01-06T02:27:04;47.9;;;24.2;;
69917;SDS011;57203;42.672;23.334;2024-01-06T02:28:04;41.7;;;25.7;;
69917;SDS011;57203;42.672;23.334;2024-01-06T02:29:04;50.5;;;25.3;;
69917;SDS011;57203;42.672;23.334;2024-01-06T02:30:05;49.0;;;25.7;;
69917;SDS011;57203;42.672;23.334;2024-01-06T02:31:05;49.0;;;26.6;;
69917;SDS011;57203;42.672;23.334;2024-01-06T02:32:05;58.7;;;29.9;;
69917;SDS011;57203;42.672;23.334;2024-01-06T02:33:05;48.7;;;29.4;;
69917;SDS011;57203;42.672;23.334;2024-01-06T02:34:05;48.7;;;27.1;;
69917;SDS011;57203;42.672;23.334;2024-01-06T02:35:06;45.8;;;26.4;;
69917;SDS011;57203;42.672;23.334;2024-01-06T02:36:06;42.1;;;26.3;;
69917;SDS011;57203;42.672;23.334;2024-01-06T02:37:06;42.1;;;26.5;;
69917;SDS011;57203;42.672;23.334;2024-01-06T02:38:06;45.7;;;24.6;;
69917;SDS011;57203;42.672;23.334;2024-01-06T02:39:06;45.3;;;24.8;;
69917;SDS011;57203;42.672;23.334;2024-01-06T02:40:07;49.2;;;24.6;;
69917;SDS011;57203;42.672;23.334;2024-01-06T02:41:07;46.3;;;25.2;;
69917;SDS011;57203;42.672;23.334;2024-01-06T02:42:07;46.3;;;25.9;;
69917;SDS011;57203;42.672;23.334;2024-01-06T02:43:07;52.1;;;26.0;;
69917;SDS011;57203;42.672;23.334;2024-01-06T02:44:07;52.1;;;29.7;;
69917;SDS011;57203;42.672;23.334;2024-01-06T02:45:08;45.6;;;28.7;;
69917;SDS011;57203;42.672;23.334;2024-01-06T02:46:08;46.1;;;29.9;;
69917;SDS011;57203;42.672;23.334;2024-01-06T02:47:08;46.1;;;29.6;;
69917;SDS011;57203;42.672;23.334;2024-01-06T02:48:08;47.8;;;29.7;;
69917;SDS011;57203;42.672;23.334;2024-01-06T02:49:08;52.1;;;28.0;;
69917;SDS011;57203;42.672;23.334;2024-01-06T02:50:08;55.4;;;28.1;;
69917;SDS011;57203;42.672;23.334;2024-01-06T02:51:10;51.6;;;27.3;;
69917;SDS011;57203;42.672;23.334;2024-01-06T02:52:09;51.6;;;26.5;;
69917;SDS011;57203;42.672;23.334;2024-01-06T02:53:09;44.5;;;25.8;;
69917;SDS011;57203;42.672;23.334;2024-01-06T02:54:09;44.5;;;29.6;;
69917;SDS011;57203;42.672;23.334;2024-01-06T02:55:09;46.8;;;29.4;;
69917;SDS011;57203;42.672;23.334;2024-01-06T02:56:10;48.2;;;24.8;;
69917;SDS011;57203;42.672;23.334;2024-01-06T02:57:09;48.2;;;24.5;;
69917;SDS011;57203;42.672;23.334;2024-01-06T02:58:10;44.2;;;26.6;;
69917;SDS011;57203;42.672;23.334;2024-01-06T02:59:10;41.9;;;26.8;;
69917;SDS011;57203;42.672;23.334;2024-01-06T03:00:10;43.5;;;25.4;;
69917;SDS011;57203;42.672;23.334;2024-01-06T03:01:11;41.4;;;26.3;;
69917;SDS011;57203;42.672;23.334;2024-01-06T03:02:10;40.1;;;23.0;;
69917;SDS011;57203;42.672;23.334;2024-01-06T03:03:11;40.1;;;24.5;;
69917;SDS011;57203;42.672;23.334;2024-01-06T03:04:11;41.8;;;24.7;;
69917;SDS011;57203;42.672;23.334;2024-01-06T03:05:11;41.8;;;24.1;;
69917;SDS011;57203;42.672;23.334;2024-01-06T03:07:11;42.6;;;24.7;;
69917;SDS011;57203;42.672;23.334;2024-01-06T03:08:11;43.1;;;22.0;;
69917;SDS011;57203;42.672;23.334;2024-01-06T03:09:12;38.2;;;22.5;;
69917;SDS011;57203;42.672;23.334;2024-01-06T03:10:12;38.2;;;20.3;;
69917;SDS011;57203;42.672;23.334;2024-01-06T03:11:12;33.0;;;20.0;;
69917;SDS011;57203;42.672;23.334;2024-01-06T03:12:12;41.3;;;18.6;;
69917;SDS011;57203;42.672;23.334;2024-01-06T03:13:12;35.9;;;17.1;;
69917;SDS011;57203;42.672;23.334;2024-01-06T03:14:13;31.0;;;19.4;;
69917;SDS011;57203;42.672;23.334;2024-01-06T03:15:13;31.2;;;16.5;;
69917;SDS011;57203;42.672;23.334;2024-01-06T03:16:13;31.2;;;17.4;;
69917;SDS011;57203;42.672;23.334;2024-01-06T03:17:13;30.7;;;17.0;;
69917;SDS011;57203;42.672;23.334;2024-01-06T03:18:13;30.7;;;18.1;;
69917;SDS011;57203;42.672;23.334;2024-01-06T03:19:14;31.3;;;17.8;;
69917;SDS011;57203;42.672;23.334;2024-01-06T03:20:14;31.3;;;17.5;;
69917;SDS011;57203;42.672;23.334;2024-01-06T03:21:16;28.1;;;16.3;;
69917;SDS011;57203;42.672;23.334;2024-01-06T03:22:14;27.7;;;15.8;;
69917;SDS011;57203;42.672;23.334;2024-01-06T03:23:14;25.5;;;13.6;;
69917;SDS011;57203;42.672;23.334;2024-01-06T03:24:14;25.5;;;13.1;;
69917;SDS011;57203;42.672;23.334;2024-01-06T03:25:14;23.6;;;13.6;;
69917;SDS011;57203;42.672;23.334;2024-01-06T03:26:16;27.1;;;14.5;;
69917;SDS011;57203;42.672;23.334;2024-01-06T03:27:15;24.0;;;14.9;;
69917;SDS011;57203;42.672;23.334;2024-01-06T03:28:15;27.9;;;14.5;;
69917;SDS011;57203;42.672;23.334;2024-01-06T03:29:15;25.4;;;14.9;;
69917;SDS011;57203;42.672;23.334;2024-01-06T03:30:15;25.4;;;13.7;;
69917;SDS011;57203;42.672;23.334;2024-01-06T03:31:16;23.3;;;12.7;;
69917;SDS011;57203;42.672;23.334;2024-01-06T03:32:16;21.6;;;14.2;;
69917;SDS011;57203;42.672;23.334;2024-01-06T03:33:16;24.4;;;13.0;;
69917;SDS011;57203;42.672;23.334;2024-01-06T03:34:16;20.8;;;11.4;;
69917;SDS011;57203;42.672;23.334;2024-01-06T03:35:16;23.1;;;12.5;;
69917;SDS011;57203;42.672;23.334;2024-01-06T03:36:16;23.1;;;11.5;;
69917;SDS011;57203;42.672;23.334;2024-01-06T03:37:17;20.8;;;12.6;;
69917;SDS011;57203;42.672;23.334;2024-01-06T03:38:17;20.8;;;13.4;;
69917;SDS011;57203;42.672;23.334;2024-01-06T03:39:17;22.5;;;12.1;;
69917;SDS011;57203;42.672;23.334;2024-01-06T03:40:17;22.5;;;12.4;;
69917;SDS011;57203;42.672;23.334;2024-01-06T03:42:18;18.5;;;11.8;;
69917;SDS011;57203;42.672;23.334;2024-01-06T03:43:18;19.8;;;11.9;;
69917;SDS011;57203;42.672;23.334;2024-01-06T03:44:18;19.8;;;12.1;;
69917;SDS011;57203;42.672;23.334;2024-01-06T03:45:18;21.1;;;11.1;;
69917;SDS011;57203;42.672;23.334;2024-01-06T03:46:18;21.1;;;11.8;;
69917;SDS011;57203;42.672;23.334;2024-01-06T03:47:18;25.0;;;11.7;;
69917;SDS011;57203;42.672;23.334;2024-01-06T03:48:19;21.7;;;12.4;;
69917;SDS011;57203;42.672;23.334;2024-01-06T03:49:19;20.3;;;10.6;;
69917;SDS011;57203;42.672;23.334;2024-01-06T03:50:19;20.3;;;11.2;;
69917;SDS011;57203;42.672;23.334;2024-01-06T03:51:19;17.5;;;11.0;;
69917;SDS011;57203;42.672;23.334;2024-01-06T03:52:19;18.0;;;11.3;;
69917;SDS011;57203;42.672;23.334;2024-01-06T03:53:20;18.0;;;11.1;;
69917;SDS011;57203;42.672;23.334;2024-01-06T03:54:20;17.9;;;11.3;;
69917;SDS011;57203;42.672;23.334;2024-01-06T03:55:20;23.3;;;11.4;;
69917;SDS011;57203;42.672;23.334;2024-01-06T03:56:20;20.1;;;11.7;;
69917;SDS011;57203;42.672;23.334;2024-01-06T03:57:20;19.0;;;10.7;;
69917;SDS011;57203;42.672;23.334;2024-01-06T03:58:20;18.9;;;11.7;;
69917;SDS011;57203;42.672;23.334;2024-01-06T03:59:21;21.0;;;12.1;;
69917;SDS011;57203;42.672;23.334;2024-01-06T04:00:21;21.0;;;11.5;;
69917;SDS011;57203;42.672;23.334;2024-01-06T04:01:21;18.6;;;11.2;;
69917;SDS011;57203;42.672;23.334;2024-01-06T04:02:21;14.8;;;9.8;;
69917;SDS011;57203;42.672;23.334;2024-01-06T04:03:21;17.3;;;10.1;;
69917;SDS011;57203;42.672;23.334;2024-01-06T04:04:22;17.3;;;11.1;;
69917;SDS011;57203;42.672;23.334;2024-01-06T04:05:22;20.4;;;12.2;;
69917;SDS011;57203;42.672;23.334;2024-01-06T04:06:22;20.8;;;12.9;;
69917;SDS011;57203;42.672;23.334;2024-01-06T04:07:22;20.8;;;11.8;;
69917;SDS011;57203;42.672;23.334;2024-01-06T04:08:22;17.8;;;10.2;;
69917;SDS011;57203;42.672;23.334;2024-01-06T04:10:23;16.9;;;9.6;;
69917;SDS011;57203;42.672;23.334;2024-01-06T04:11:23;16.9;;;11.6;;
69917;SDS011;57203;42.672;23.334;2024-01-06T04:12:23;20.8;;;11.9;;
69917;SDS011;57203;42.672;23.334;2024-01-06T04:13:23;18.2;;;11.3;;
69917;SDS011;57203;42.672;23.334;2024-01-06T04:14:23;18.2;;;10.7;;
69917;SDS011;57203;42.672;23.334;2024-01-06T04:15:24;19.0;;;10.9;;
69917;SDS011;57203;42.672;23.334;2024-01-06T04:16:25;17.7;;;12.5;;
69917;SDS011;57203;42.672;23.334;2024-01-06T04:17:24;19.4;;;10.7;;
69917;SDS011;57203;42.672;23.334;2024-01-06T04:18:24;21.2;;;11.2;;
69917;SDS011;57203;42.672;23.334;2024-01-06T04:19:24;21.2;;;11.3;;
69917;SDS011;57203;42.672;23.334;2024-01-06T04:20:24;19.6;;;13.1;;
69917;SDS011;57203;42.672;23.334;2024-01-06T04:21:25;22.5;;;11.8;;
69917;SDS011;57203;42.672;23.334;2024-01-06T04:22:25;20.1;;;11.7;;
69917;SDS011;57203;42.672;23.334;2024-01-06T04:23:25;21.7;;;12.5;;
69917;SDS011;57203;42.672;23.334;2024-01-06T04:24:25;19.9;;;12.2;;
69917;SDS011;57203;42.672;23.334;2024-01-06T04:25:25;19.1;;;11.6;;
69917;SDS011;57203;42.672;23.334;2024-01-06T04:26:26;18.9;;;11.8;;
69917;SDS011;57203;42.672;23.334;2024-01-06T04:27:26;18.9;;;11.5;;
69917;SDS011;57203;42.672;23.334;2024-01-06T04:28:26;19.0;;;11.3;;
69917;SDS011;57203;42.672;23.334;2024-01-06T04:29:26;16.0;;;10.7;;
69917;SDS011;57203;42.672;23.334;2024-01-06T04:30:26;16.9;;;11.2;;
69917;SDS011;57203;42.672;23.334;2024-01-06T04:31:26;18.8;;;11.6;;
69917;SDS011;57203;42.672;23.334;2024-01-06T04:32:27;17.1;;;10.4;;
69917;SDS011;57203;42.672;23.334;2024-01-06T04:33:27;17.1;;;9.9;;
69917;SDS011;57203;42.672;23.334;2024-01-06T04:34:27;17.7;;;10.7;;
69917;SDS011;57203;42.672;23.334;2024-01-06T04:35:27;17.7;;;11.4;;
69917;SDS011;57203;42.672;23.334;2024-01-06T04:36:27;16.1;;;10.8;;
69917;SDS011;57203;42.672;23.334;2024-01-06T04:38:28;20.7;;;11.7;;
69917;SDS011;57203;42.672;23.334;2024-01-06T04:39:28;19.1;;;10.7;;
69917;SDS011;57203;42.672;23.334;2024-01-06T04:40:28;20.5;;;11.1;;
69917;SDS011;57203;42.672;23.334;2024-01-06T04:41:28;20.5;;;11.6;;
69917;SDS011;57203;42.672;23.334;2024-01-06T04:42:28;19.6;;;11.3;;
69917;SDS011;57203;42.672;23.334;2024-01-06T04:43:29;22.3;;;10.9;;
69917;SDS011;57203;42.672;23.334;2024-01-06T04:44:29;19.4;;;10.8;;
69917;SDS011;57203;42.672;23.334;2024-01-06T04:45:29;24.0;;;11.2;;
69917;SDS011;57203;42.672;23.334;2024-01-06T04:46:29;24.0;;;12.0;;
69917;SDS011;57203;42.672;23.334;2024-01-06T04:47:29;19.8;;;11.7;;
69917;SDS011;57203;42.672;23.334;2024-01-06T04:48:29;19.5;;;11.4;;
69917;SDS011;57203;42.672;23.334;2024-01-06T04:49:30;19.5;;;11.9;;
69917;SDS011;57203;42.672;23.334;2024-01-06T04:50:30;20.0;;;11.6;;
69917;SDS011;57203;42.672;23.334;2024-01-06T04:51:30;20.0;;;26.0;;
69917;SDS011;57203;42.672;23.334;2024-01-06T04:52:30;228.6;;;89.7;;
69917;SDS011;57203;42.672;23.334;2024-01-06T04:53:30;125.8;;;48.0;;
69917;SDS011;57203;42.672;23.334;2024-01-06T04:54:31;125.8;;;31.8;;
69917;SDS011;57203;42.672;23.334;2024-01-06T04:55:31;79.2;;;17.3;;
69917;SDS011;57203;42.672;23.334;2024-01-06T04:56:31;38.9;;;18.5;;
69917;SDS011;57203;42.672;23.334;2024-01-06T04:57:31;37.6;;;16.0;;
69917;SDS011;57203;42.672;23.334;2024-01-06T04:58:31;32.7;;;14.6;;
69917;SDS011;57203;42.672;23.334;2024-01-06T04:59:31;32.7;;;18.7;;
69917;SDS011;57203;42.672;23.334;2024-01-06T05:00:32;27.4;;;14.9;;
69917;SDS011;57203;42.672;23.334;2024-01-06T05:01:32;27.4;;;12.9;;
69917;SDS011;57203;42.672;23.334;2024-01-06T05:02:32;18.2;;;11.1;;
69917;SDS011;57203;42.672;23.334;2024-01-06T05:03:32;18.2;;;10.7;;
69917;SDS011;57203;42.672;23.334;2024-01-06T05:04:32;19.1;;;9.7;;
69917;SDS011;57203;42.672;23.334;2024-01-06T05:05:33;19.1;;;10.0;;
69917;SDS011;57203;42.672;23.334;2024-01-06T05:06:34;18.8;;;10.6;;
69917;SDS011;57203;42.672;23.334;2024-01-06T05:07:33;18.5;;;9.5;;
69917;SDS011;57203;42.672;23.334;2024-01-06T05:08:33;20.4;;;10.2;;
69917;SDS011;57203;42.672;23.334;2024-01-06T05:09:33;20.4;;;9.9;;
69917;SDS011;57203;42.672;23.334;2024-01-06T05:10:34;17.5;;;9.3;;
69917;SDS011;57203;42.672;23.334;2024-01-06T05:11:34;17.5;;;11.1;;
69917;SDS011;57203;42.672;23.334;2024-01-06T05:12:34;20.2;;;10.1;;
69917;SDS011;57203;42.672;23.334;2024-01-06T05:13:34;18.0;;;8.1;;
69917;SDS011;57203;42.672;23.334;2024-01-06T05:14:34;14.9;;;7.7;;
69917;SDS011;57203;42.672;23.334;2024-01-06T05:15:34;17.9;;;10.3;;
69917;SDS011;57203;42.672;23.334;2024-01-06T05:16:35;17.9;;;10.7;;
69917;SDS011;57203;42.672;23.334;2024-01-06T05:17:35;15.7;;;9.7;;
69917;SDS011;57203;42.672;23.334;2024-01-06T05:18:35;18.3;;;9.6;;
69917;SDS011;57203;42.672;23.334;2024-01-06T05:19:35;14.7;;;9.5;;
69917;SDS011;57203;42.672;23.334;2024-01-06T05:20:35;14.7;;;10.2;;
69917;SDS011;57203;42.672;23.334;2024-01-06T05:21:36;16.0;;;10.4;;
69917;SDS011;57203;42.672;23.334;2024-01-06T05:22:36;15.1;;;10.2;;
69917;SDS011;57203;42.672;23.334;2024-01-06T05:23:36;15.7;;;9.2;;
69917;SDS011;57203;42.672;23.334;2024-01-06T05:24:36;15.7;;;9.1;;
69917;SDS011;57203;42.672;23.334;2024-01-06T05:25:36;18.8;;;9.2;;
69917;SDS011;57203;42.672;23.334;2024-01-06T05:26:36;15.4;;;9.9;;
69917;SDS011;57203;42.672;23.334;2024-01-06T05:27:37;16.4;;;9.7;;
69917;SDS011;57203;42.672;23.334;2024-01-06T05:28:37;16.4;;;10.5;;
69917;SDS011;57203;42.672;23.334;2024-01-06T05:29:37;17.1;;;9.5;;
69917;SDS011;57203;42.672;23.334;2024-01-06T05:30:37;17.4;;;9.2;;
69917;SDS011;57203;42.672;23.334;2024-01-06T05:31:37;17.4;;;10.4;;
69917;SDS011;57203;42.672;23.334;2024-01-06T05:32:37;17.4;;;9.1;;
69917;SDS011;57203;42.672;23.334;2024-01-06T05:33:38;11.6;;;8.0;;
69917;SDS011;57203;42.672;23.334;2024-01-06T05:34:38;17.1;;;8.8;;
69917;SDS011;57203;42.672;23.334;2024-01-06T05:35:38;17.1;;;9.5;;
69917;SDS011;57203;42.672;23.334;2024-01-06T05:36:38;17.2;;;9.3;;
69917;SDS011;57203;42.672;23.334;2024-01-06T05:37:38;12.1;;;8.6;;
69917;SDS011;57203;42.672;23.334;2024-01-06T05:39:39;13.1;;;9.3;;
69917;SDS011;57203;42.672;23.334;2024-01-06T05:40:39;13.1;;;9.5;;
69917;SDS011;57203;42.672;23.334;2024-01-06T05:41:39;17.9;;;8.8;;
69917;SDS011;57203;42.672;23.334;2024-01-06T05:42:39;15.1;;;8.2;;
69917;SDS011;57203;42.672;23.334;2024-01-06T05:43:39;12.2;;;7.8;;
69917;SDS011;57203;42.672;23.334;2024-01-06T05:44:40;14.8;;;8.1;;
69917;SDS011;57203;42.672;23.334;2024-01-06T05:45:40;14.8;;;7.9;;
69917;SDS011;57203;42.672;23.334;2024-01-06T05:46:40;14.6;;;7.7;;
69917;SDS011;57203;42.672;23.334;2024-01-06T05:47:40;11.0;;;7.5;;
69917;SDS011;57203;42.672;23.334;2024-01-06T05:48:40;16.8;;;8.7;;
69917;SDS011;57203;42.672;23.334;2024-01-06T05:49:41;16.8;;;7.6;;
69917;SDS011;57203;42.672;23.334;2024-01-06T05:50:41;14.7;;;8.6;;
69917;SDS011;57203;42.672;23.334;2024-01-06T05:51:43;13.7;;;8.2;;
69917;SDS011;57203;42.672;23.334;2024-01-06T05:52:41;13.5;;;8.6;;
69917;SDS011;57203;42.672;23.334;2024-01-06T05:53:41;13.5;;;8.7;;
69917;SDS011;57203;42.672;23.334;2024-01-06T05:54:41;13.6;;;7.9;;
69917;SDS011;57203;42.672;23.334;2024-01-06T05:55:41;14.3;;;7.3;;
69917;SDS011;57203;42.672;23.334;2024-01-06T05:56:42;11.9;;;7.6;;
69917;SDS011;57203;42.672;23.334;2024-01-06T05:57:42;12.5;;;7.5;;
69917;SDS011;57203;42.672;23.334;2024-01-06T05:58:42;12.5;;;7.7;;
69917;SDS011;57203;42.672;23.334;2024-01-06T05:59:42;14.5;;;7.5;;
69917;SDS011;57203;42.672;23.334;2024-01-06T06:00:42;11.5;;;7.8;;
69917;SDS011;57203;42.672;23.334;2024-01-06T06:01:43;12.0;;;7.1;;
69917;SDS011;57203;42.672;23.334;2024-01-06T06:02:43;12.6;;;6.8;;
69917;SDS011;57203;42.672;23.334;2024-01-06T06:03:43;12.6;;;7.7;;
69917;SDS011;57203;42.672;23.334;2024-01-06T06:04:43;15.8;;;8.9;;
69917;SDS011;57203;42.672;23.334;2024-01-06T06:05:43;13.6;;;7.9;;
69917;SDS011;57203;42.672;23.334;2024-01-06T06:06:43;13.6;;;8.0;;